Time;durP1;ratioP1;P1;durP2;ratioP2;P2;SDS_P1;SDS_P2;PMS_P1;PMS_P2;Temp;Humidity;BMP_temperature;BMP_pressure;BME280_temperature;BME280_humidity;BME280_pressure;Samples;Min_cycle;Max_cycle;Signal;HPM_P1;HPM_P2
2023/12/12 00:02:06;;;;;;;108.97;45.10;;;;;;;;;;6084213;29;20427;-85
2023/12/12 00:05:08;;;;;;;94.45;40.47;;;;;;;;;;6085493;29;20057;-83
2023/12/12 00:08:12;;;;;;;83.93;38.30;;;;;;;;;;6081880;29;20068;-84
2023/12/12 00:11:13;;;;;;;89.43;38.03;;;;;;;;;;6086141;29;20078;-84
2023/12/12 00:14:15;;;;;;;77.47;36.00;;;;;;;;;;6083296;29;20056;-85
2023/12/12 00:17:17;;;;;;;85.78;36.25;;;;;;;;;;6083204;29;20079;-85
2023/12/12 00:20:19;;;;;;;82.53;37.42;;;;;;;;;;6087538;29;20064;-85
2023/12/12 00:23:22;;;;;;;88.90;39.63;;;;;;;;;;6085559;29;20080;-85
2023/12/12 00:26:23;;;;;;;82.85;37.20;;;;;;;;;;6084361;29;20071;-85
2023/12/12 00:29:25;;;;;;;78.07;35.17;;;;;;;;;;6082912;29;20584;-85
2023/12/12 00:32:27;;;;;;;84.68;36.60;;;;;;;;;;6083912;29;20109;-83
2023/12/12 00:35:29;;;;;;;85.43;38.13;;;;;;;;;;6082453;29;20108;-86
2023/12/12 00:38:32;;;;;;;85.60;36.95;;;;;;;;;;6086725;29;20163;-86
2023/12/12 00:41:34;;;;;;;87.80;37.47;;;;;;;;;;6084011;29;20348;-85
2023/12/12 00:44:35;;;;;;;95.75;39.30;;;;;;;;;;6086358;29;20059;-85
2023/12/12 00:47:37;;;;;;;93.32;39.90;;;;;;;;;;6087657;29;20280;-87
2023/12/12 00:50:39;;;;;;;87.07;38.10;;;;;;;;;;6084485;29;20049;-85
2023/12/12 00:53:42;;;;;;;88.65;38.60;;;;;;;;;;6082475;29;20109;-85
2023/12/12 00:56:46;;;;;;;94.72;40.22;;;;;;;;;;6085642;29;20060;-85
2023/12/12 00:59:48;;;;;;;95.72;39.40;;;;;;;;;;6084733;29;20287;-86
2023/12/12 01:02:50;;;;;;;92.18;39.60;;;;;;;;;;6080907;29;20573;-86
2023/12/12 01:05:52;;;;;;;94.85;39.88;;;;;;;;;;6087343;29;20356;-84
2023/12/12 01:08:55;;;;;;;99.70;39.55;;;;;;;;;;6080718;29;20228;-85
2023/12/12 01:11:57;;;;;;;92.28;38.28;;;;;;;;;;6082043;29;20363;-85
2023/12/12 01:14:59;;;;;;;97.47;39.40;;;;;;;;;;6081276;29;20064;-85
2023/12/12 01:18:01;;;;;;;90.90;39.00;;;;;;;;;;6077550;29;20061;-85
2023/12/12 01:21:03;;;;;;;101.75;40.20;;;;;;;;;;6079318;29;20064;-84
2023/12/12 01:24:06;;;;;;;88.85;39.33;;;;;;;;;;6082010;29;20060;-84
2023/12/12 01:27:08;;;;;;;98.83;39.67;;;;;;;;;;6083385;29;20343;-84
2023/12/12 01:30:11;;;;;;;90.72;38.88;;;;;;;;;;6085370;29;20051;-86
2023/12/12 01:33:13;;;;;;;94.10;40.00;;;;;;;;;;6089535;29;20061;-85
2023/12/12 01:36:14;;;;;;;89.32;40.03;;;;;;;;;;6089879;29;20060;-84
2023/12/12 01:39:18;;;;;;;94.45;39.60;;;;;;;;;;6082298;29;20055;-85
2023/12/12 01:42:19;;;;;;;88.75;37.95;;;;;;;;;;6074935;29;20297;-85
2023/12/12 01:45:24;;;;;;;83.25;38.25;;;;;;;;;;6080860;29;20056;-84
2023/12/12 01:48:26;;;;;;;87.35;37.40;;;;;;;;;;6080882;29;20470;-85
2023/12/12 01:51:28;;;;;;;87.80;38.25;;;;;;;;;;6081501;29;20257;-87
2023/12/12 01:54:31;;;;;;;86.93;37.50;;;;;;;;;;6083524;29;20060;-85
2023/12/12 01:57:33;;;;;;;87.45;38.25;;;;;;;;;;6083604;29;20056;-80
2023/12/12 02:00:36;;;;;;;92.43;37.85;;;;;;;;;;6079022;29;20259;-79
2023/12/12 02:03:39;;;;;;;93.03;38.23;;;;;;;;;;6079891;29;20049;-82
2023/12/12 02:06:42;;;;;;;89.50;37.88;;;;;;;;;;6082418;29;20082;-78
2023/12/12 02:09:45;;;;;;;89.68;39.10;;;;;;;;;;6082887;29;20306;-79
2023/12/12 02:12:47;;;;;;;102.88;41.30;;;;;;;;;;6078752;29;20061;-81
2023/12/12 02:15:48;;;;;;;91.57;39.28;;;;;;;;;;6079143;29;20056;-80
2023/12/12 02:18:50;;;;;;;99.35;40.55;;;;;;;;;;6082827;29;20052;-80
2023/12/12 02:21:53;;;;;;;94.03;40.22;;;;;;;;;;6084278;29;20064;-80
2023/12/12 02:24:55;;;;;;;92.63;40.63;;;;;;;;;;6081885;29;20054;-80
2023/12/12 02:27:58;;;;;;;90.00;38.72;;;;;;;;;;6082499;29;20054;-80
2023/12/12 02:31:00;;;;;;;91.25;39.22;;;;;;;;;;6086115;29;20066;-80
2023/12/12 02:34:02;;;;;;;91.95;39.42;;;;;;;;;;6088199;29;20120;-80
2023/12/12 02:37:06;;;;;;;91.20;40.25;;;;;;;;;;6082944;29;20112;-79
2023/12/12 02:40:09;;;;;;;90.85;38.85;;;;;;;;;;6079116;29;20120;-81
2023/12/12 02:43:11;;;;;;;85.93;38.15;;;;;;;;;;6078864;29;20052;-80
2023/12/12 02:46:13;;;;;;;94.05;40.10;;;;;;;;;;6077603;29;20060;-79
2023/12/12 02:49:14;;;;;;;84.35;37.22;;;;;;;;;;6077181;29;20471;-80
2023/12/12 02:52:17;;;;;;;81.20;36.55;;;;;;;;;;6085627;29;20053;-80
2023/12/12 02:55:19;;;;;;;88.50;38.08;;;;;;;;;;6085517;29;20056;-80
2023/12/12 02:58:21;;;;;;;85.10;37.28;;;;;;;;;;6086799;29;20064;-81
2023/12/12 03:01:23;;;;;;;76.68;34.55;;;;;;;;;;6081074;29;20107;-80
2023/12/12 03:04:24;;;;;;;80.07;36.38;;;;;;;;;;6079316;29;20067;-80
2023/12/12 03:07:27;;;;;;;80.90;36.90;;;;;;;;;;6087352;29;20048;-86
2023/12/12 03:10:29;;;;;;;77.20;35.35;;;;;;;;;;6085235;29;20057;-85
2023/12/12 03:13:32;;;;;;;73.13;35.90;;;;;;;;;;6084035;29;20153;-85
2023/12/12 03:16:34;;;;;;;75.38;35.10;;;;;;;;;;6080586;29;20067;-84
2023/12/12 03:19:35;;;;;;;70.53;34.17;;;;;;;;;;6085317;29;20362;-86
2023/12/12 03:22:39;;;;;;;76.93;34.97;;;;;;;;;;6088946;29;20052;-85
2023/12/12 03:25:41;;;;;;;75.63;35.17;;;;;;;;;;6087508;29;20048;-83
2023/12/12 03:28:42;;;;;;;77.03;36.58;;;;;;;;;;6087181;29;20056;-86
2023/12/12 03:31:44;;;;;;;74.85;35.38;;;;;;;;;;6084787;29;20060;-85
2023/12/12 03:34:46;;;;;;;71.93;34.47;;;;;;;;;;6087120;29;20057;-84
2023/12/12 03:37:49;;;;;;;68.68;32.50;;;;;;;;;;6084289;29;20067;-84
2023/12/12 03:40:51;;;;;;;75.38;35.65;;;;;;;;;;6083058;29;20301;-84
2023/12/12 03:43:52;;;;;;;68.65;33.00;;;;;;;;;;6079557;29;20065;-84
2023/12/12 03:46:54;;;;;;;77.82;34.00;;;;;;;;;;6081667;29;20063;-84
2023/12/12 03:49:56;;;;;;;79.15;36.45;;;;;;;;;;6083910;29;20049;-85
2023/12/12 03:52:59;;;;;;;73.28;33.97;;;;;;;;;;6084045;29;20041;-83
2023/12/12 03:56:01;;;;;;;70.10;33.33;;;;;;;;;;6086318;29;20053;-84
2023/12/12 03:59:03;;;;;;;77.65;34.85;;;;;;;;;;6082834;29;20476;-84
2023/12/12 04:02:05;;;;;;;73.32;35.55;;;;;;;;;;6085577;29;20055;-84
2023/12/12 04:05:09;;;;;;;79.18;35.92;;;;;;;;;;6086826;29;20076;-86
2023/12/12 04:08:13;;;;;;;76.32;34.35;;;;;;;;;;6083521;29;20053;-86
2023/12/12 04:11:15;;;;;;;78.25;35.95;;;;;;;;;;6084437;29;20143;-85
2023/12/12 04:14:17;;;;;;;79.28;35.10;;;;;;;;;;6082505;29;20599;-84
2023/12/12 04:17:18;;;;;;;83.35;35.75;;;;;;;;;;6079507;29;20059;-84
2023/12/12 04:20:20;;;;;;;73.75;35.15;;;;;;;;;;6085585;29;20045;-85
2023/12/12 04:23:23;;;;;;;74.35;36.40;;;;;;;;;;6082954;29;20045;-85
2023/12/12 04:26:29;;;;;;;74.65;35.20;;;;;;;;;;6084657;29;20060;-85
2023/12/12 04:29:30;;;;;;;73.45;34.67;;;;;;;;;;6083970;29;20061;-85
2023/12/12 04:32:32;;;;;;;72.47;34.38;;;;;;;;;;6086937;29;20064;-86
2023/12/12 04:35:34;;;;;;;81.13;34.88;;;;;;;;;;6078553;29;20332;-86
2023/12/12 04:38:37;;;;;;;74.18;35.45;;;;;;;;;;6081757;29;20362;-86
2023/12/12 04:41:40;;;;;;;78.97;37.30;;;;;;;;;;6085410;29;20048;-86
2023/12/12 04:44:42;;;;;;;79.72;34.42;;;;;;;;;;6080258;29;20453;-87
2023/12/12 04:47:44;;;;;;;78.90;33.63;;;;;;;;;;6081600;29;20052;-84
2023/12/12 04:50:46;;;;;;;78.38;34.38;;;;;;;;;;6081885;29;20087;-84
2023/12/12 04:53:49;;;;;;;74.80;36.05;;;;;;;;;;6081710;29;20060;-87
2023/12/12 04:56:51;;;;;;;82.15;35.63;;;;;;;;;;6081974;29;20044;-85
2023/12/12 04:59:52;;;;;;;76.40;34.95;;;;;;;;;;6082712;29;20060;-86
2023/12/12 05:02:54;;;;;;;72.45;34.15;;;;;;;;;;6082139;29;20123;-86
2023/12/12 05:05:56;;;;;;;79.85;36.15;;;;;;;;;;6084745;29;20163;-86
2023/12/12 05:08:59;;;;;;;84.88;38.00;;;;;;;;;;6086106;29;20313;-85
2023/12/12 05:12:01;;;;;;;85.15;35.70;;;;;;;;;;6085157;29;20053;-84
2023/12/12 05:15:03;;;;;;;82.30;36.67;;;;;;;;;;6076693;29;20064;-84
2023/12/12 05:18:06;;;;;;;86.82;38.63;;;;;;;;;;6080095;29;20445;-85
2023/12/12 05:21:08;;;;;;;79.50;36.63;;;;;;;;;;6081004;29;20617;-85
2023/12/12 05:24:11;;;;;;;80.90;37.63;;;;;;;;;;6084309;29;20056;-86
2023/12/12 05:27:13;;;;;;;85.00;36.03;;;;;;;;;;6083499;29;20065;-86
2023/12/12 05:30:15;;;;;;;81.20;36.88;;;;;;;;;;6081356;29;20056;-85
2023/12/12 05:33:17;;;;;;;76.30;36.15;;;;;;;;;;6081780;29;20056;-84
2023/12/12 05:36:19;;;;;;;86.53;37.03;;;;;;;;;;6084768;29;20382;-79
2023/12/12 05:39:22;;;;;;;81.85;36.97;;;;;;;;;;6080144;29;20047;-80
2023/12/12 05:42:24;;;;;;;79.40;36.42;;;;;;;;;;6082364;29;20056;-80
2023/12/12 05:45:26;;;;;;;74.78;35.83;;;;;;;;;;6077857;29;20067;-81
2023/12/12 05:48:28;;;;;;;85.22;35.70;;;;;;;;;;6078168;29;20277;-80
2023/12/12 05:51:30;;;;;;;77.68;34.67;;;;;;;;;;6083793;29;20080;-80
2023/12/12 05:54:33;;;;;;;79.45;35.40;;;;;;;;;;6076792;29;20128;-80
2023/12/12 05:57:35;;;;;;;78.38;35.35;;;;;;;;;;6079395;29;20136;-79
2023/12/12 06:00:38;;;;;;;76.30;34.47;;;;;;;;;;6079699;29;20057;-79
2023/12/12 06:03:42;;;;;;;71.70;35.15;;;;;;;;;;6079718;29;20072;-79
2023/12/12 06:06:44;;;;;;;77.18;34.10;;;;;;;;;;6084833;29;20048;-80
2023/12/12 06:09:47;;;;;;;79.65;34.58;;;;;;;;;;6081436;29;20057;-79
2023/12/12 06:12:49;;;;;;;72.82;35.33;;;;;;;;;;6081475;29;20061;-80
2023/12/12 06:15:51;;;;;;;73.40;35.40;;;;;;;;;;6077898;29;20119;-79
2023/12/12 06:18:52;;;;;;;75.95;35.55;;;;;;;;;;6076615;29;20060;-79
2023/12/12 06:21:54;;;;;;;77.55;35.90;;;;;;;;;;6082954;29;20467;-78
2023/12/12 06:24:57;;;;;;;76.20;36.85;;;;;;;;;;6085165;29;20055;-79
2023/12/12 06:27:59;;;;;;;75.57;35.10;;;;;;;;;;6084466;29;20335;-79
2023/12/12 06:31:01;;;;;;;78.72;34.90;;;;;;;;;;6078568;29;20055;-80
2023/12/12 06:34:02;;;;;;;75.88;35.25;;;;;;;;;;6076565;29;20057;-81
2023/12/12 06:37:05;;;;;;;77.40;36.15;;;;;;;;;;6073991;29;20068;-79
2023/12/12 06:40:12;;;;;;;71.80;35.20;;;;;;;;;;6071254;29;20060;-79
2023/12/12 06:43:14;;;;;;;79.60;37.72;;;;;;;;;;6080996;29;20136;-79
2023/12/12 06:46:18;;;;;;;69.80;33.38;;;;;;;;;;6086398;29;20060;-82
2023/12/12 06:49:20;;;;;;;74.28;35.78;;;;;;;;;;6086967;29;20056;-83
2023/12/12 06:52:24;;;;;;;73.15;34.78;;;;;;;;;;6087060;29;20057;-82
2023/12/12 06:55:27;;;;;;;74.80;34.50;;;;;;;;;;6086124;29;20053;-83
2023/12/12 06:58:29;;;;;;;74.63;33.85;;;;;;;;;;6086440;29;20056;-83
2023/12/12 07:01:31;;;;;;;73.70;34.40;;;;;;;;;;6087394;29;21187;-84
2023/12/12 07:04:33;;;;;;;75.18;35.15;;;;;;;;;;6083954;29;20155;-83
2023/12/12 07:07:35;;;;;;;73.25;33.40;;;;;;;;;;6085110;29;20075;-83
2023/12/12 07:10:38;;;;;;;76.40;34.78;;;;;;;;;;6085588;29;20359;-84
2023/12/12 07:13:40;;;;;;;71.40;33.83;;;;;;;;;;6083229;29;20054;-83
2023/12/12 07:16:42;;;;;;;73.10;34.35;;;;;;;;;;6082684;29;20060;-83
2023/12/12 07:19:43;;;;;;;73.70;35.90;;;;;;;;;;6081540;29;20268;-82
2023/12/12 07:22:45;;;;;;;71.68;33.75;;;;;;;;;;6087210;29;20131;-85
2023/12/12 07:25:48;;;;;;;76.15;34.88;;;;;;;;;;6083458;29;20112;-82
2023/12/12 07:28:51;;;;;;;75.55;35.90;;;;;;;;;;6082148;29;20068;-84
2023/12/12 07:31:53;;;;;;;74.53;34.22;;;;;;;;;;6084707;29;20060;-85
2023/12/12 07:34:55;;;;;;;70.25;33.42;;;;;;;;;;6082495;29;20059;-83
2023/12/12 07:37:56;;;;;;;67.10;32.30;;;;;;;;;;6084711;29;20052;-82
2023/12/12 07:41:00;;;;;;;65.45;31.05;;;;;;;;;;6083963;29;20093;-83
2023/12/12 07:44:03;;;;;;;70.28;32.67;;;;;;;;;;6083828;29;20339;-83
2023/12/12 07:47:05;;;;;;;68.00;31.92;;;;;;;;;;6081880;29;20091;-83
2023/12/12 07:50:08;;;;;;;67.03;33.35;;;;;;;;;;6085196;29;20051;-83
2023/12/12 07:53:10;;;;;;;60.50;30.23;;;;;;;;;;6085983;29;20058;-81
2023/12/12 07:56:13;;;;;;;58.60;30.40;;;;;;;;;;6082275;29;20629;-81
2023/12/12 07:59:15;;;;;;;68.63;32.10;;;;;;;;;;6090574;29;20056;-81
2023/12/12 08:02:17;;;;;;;65.30;30.92;;;;;;;;;;6086089;29;20060;-80
2023/12/12 08:05:18;;;;;;;61.60;30.75;;;;;;;;;;6084421;29;20352;-81
2023/12/12 08:08:20;;;;;;;68.25;30.20;;;;;;;;;;6079756;29;20220;-79
2023/12/12 08:11:27;;;;;;;62.28;29.70;;;;;;;;;;6086355;29;20065;-81
2023/12/12 08:14:28;;;;;;;61.35;30.58;;;;;;;;;;6082939;29;20075;-80
2023/12/12 08:17:30;;;;;;;62.25;31.73;;;;;;;;;;6081031;29;20052;-81
2023/12/12 08:20:32;;;;;;;68.88;31.48;;;;;;;;;;6079045;29;20064;-80
2023/12/12 08:23:34;;;;;;;61.65;29.52;;;;;;;;;;6080389;29;20104;-80
2023/12/12 08:26:53;;;;;;;61.63;30.13;;;;;;;;;;6082273;29;20124;-81
2023/12/12 08:29:55;;;;;;;60.75;29.98;;;;;;;;;;6076199;29;20059;-79
2023/12/12 08:32:57;;;;;;;55.60;29.92;;;;;;;;;;6084068;29;20057;-78
2023/12/12 08:35:59;;;;;;;58.05;29.83;;;;;;;;;;6086806;29;20108;-80
2023/12/12 08:39:01;;;;;;;54.88;28.90;;;;;;;;;;6082261;29;20079;-79
2023/12/12 08:42:05;;;;;;;54.72;29.58;;;;;;;;;;6081047;29;20292;-78
2023/12/12 08:45:08;;;;;;;49.97;27.63;;;;;;;;;;6083437;29;20045;-79
2023/12/12 08:48:10;;;;;;;44.90;26.40;;;;;;;;;;6084129;29;20950;-81
2023/12/12 08:51:12;;;;;;;41.45;24.23;;;;;;;;;;6086912;29;20057;-79
2023/12/12 08:54:14;;;;;;;38.38;23.98;;;;;;;;;;6082317;29;20063;-80
2023/12/12 08:57:18;;;;;;;50.60;26.00;;;;;;;;;;6088180;29;20067;-79
2023/12/12 09:00:19;;;;;;;46.08;25.55;;;;;;;;;;6084414;29;20048;-79
2023/12/12 09:03:21;;;;;;;52.58;27.33;;;;;;;;;;6081170;29;20072;-79
2023/12/12 09:06:23;;;;;;;48.47;26.50;;;;;;;;;;6083923;29;20063;-84
2023/12/12 09:09:27;;;;;;;48.67;27.65;;;;;;;;;;6082914;29;20064;-85
2023/12/12 09:12:30;;;;;;;50.13;26.50;;;;;;;;;;6081803;29;20065;-85
2023/12/12 09:15:32;;;;;;;51.85;26.48;;;;;;;;;;6081345;29;20071;-85
2023/12/12 09:18:34;;;;;;;43.60;25.60;;;;;;;;;;6079760;29;20060;-85
2023/12/12 09:21:35;;;;;;;45.10;27.00;;;;;;;;;;6077960;29;20056;-83
2023/12/12 09:24:37;;;;;;;47.63;25.52;;;;;;;;;;6083087;29;20324;-85
2023/12/12 09:27:40;;;;;;;41.78;24.90;;;;;;;;;;6084354;29;20052;-85
2023/12/12 09:30:42;;;;;;;46.67;25.75;;;;;;;;;;6082213;29;20082;-84
2023/12/12 09:33:44;;;;;;;46.30;26.33;;;;;;;;;;6082570;29;20071;-83
2023/12/12 09:36:45;;;;;;;45.28;25.42;;;;;;;;;;6083968;29;20229;-86
2023/12/12 09:39:47;;;;;;;48.75;27.42;;;;;;;;;;6084244;29;20362;-83
2023/12/12 09:42:51;;;;;;;45.22;27.50;;;;;;;;;;6083558;29;20066;-84
2023/12/12 09:45:54;;;;;;;48.55;27.00;;;;;;;;;;6077911;29;20052;-86
2023/12/12 09:48:56;;;;;;;52.03;26.52;;;;;;;;;;6084165;29;20097;-85
2023/12/12 09:51:59;;;;;;;49.17;27.13;;;;;;;;;;6085385;29;20343;-85
2023/12/12 09:55:00;;;;;;;52.00;28.48;;;;;;;;;;6082280;29;20064;-84
2023/12/12 09:58:03;;;;;;;54.03;29.35;;;;;;;;;;6082936;29;20064;-84
2023/12/12 10:01:06;;;;;;;55.17;27.27;;;;;;;;;;6082294;29;20048;-85
2023/12/12 10:04:09;;;;;;;59.13;28.63;;;;;;;;;;6085619;29;20060;-85
2023/12/12 10:07:13;;;;;;;63.08;28.60;;;;;;;;;;6085796;29;20240;-80
2023/12/12 10:10:15;;;;;;;60.05;29.65;;;;;;;;;;6077723;29;20067;-87
2023/12/12 10:13:18;;;;;;;53.28;28.45;;;;;;;;;;6084781;29;20055;-81
2023/12/12 10:16:20;;;;;;;58.00;30.90;;;;;;;;;;6082314;29;20205;-80
2023/12/12 10:19:23;;;;;;;54.25;27.42;;;;;;;;;;6077675;29;20100;-80
2023/12/12 10:22:25;;;;;;;58.28;30.40;;;;;;;;;;6075879;29;20048;-80
2023/12/12 10:25:28;;;;;;;53.72;27.95;;;;;;;;;;6074098;29;20052;-80
2023/12/12 10:28:33;;;;;;;50.07;27.93;;;;;;;;;;6079531;29;20279;-80
2023/12/12 10:31:36;;;;;;;48.83;26.42;;;;;;;;;;6079000;29;20122;-80
2023/12/12 10:34:38;;;;;;;46.70;26.73;;;;;;;;;;6086225;29;20056;-78
2023/12/12 10:37:39;;;;;;;43.25;25.40;;;;;;;;;;6080025;29;20049;-78
2023/12/12 10:40:42;;;;;;;44.22;25.98;;;;;;;;;;6084268;29;20064;-78
2023/12/12 10:43:46;;;;;;;43.58;25.48;;;;;;;;;;6079362;29;20104;-82
2023/12/12 10:46:47;;;;;;;;;;;;;;;;;;6082326;29;20067;-81
2023/12/12 10:49:49;;;;;;;44.83;25.30;;;;;;;;;;6078508;29;19927;-79
2023/12/12 10:52:56;;;;;;;49.05;26.30;;;;;;;;;;6081422;29;20351;-80
2023/12/12 10:55:58;;;;;;;45.55;26.38;;;;;;;;;;6078636;29;20295;-80
2023/12/12 10:59:03;;;;;;;49.95;28.40;;;;;;;;;;6080910;29;20048;-81
2023/12/12 11:02:05;;;;;;;47.35;27.63;;;;;;;;;;6076722;29;20132;-81
2023/12/12 11:05:08;;;;;;;50.17;28.48;;;;;;;;;;6083041;29;20052;-80
2023/12/12 11:08:10;;;;;;;49.17;28.60;;;;;;;;;;6080025;29;20115;-80
2023/12/12 11:11:14;;;;;;;53.42;29.20;;;;;;;;;;6081144;29;20065;-80
2023/12/12 11:14:19;;;;;;;46.47;28.00;;;;;;;;;;6081273;29;20120;-79
2023/12/12 11:17:21;;;;;;;51.92;27.90;;;;;;;;;;6081295;29;20308;-78
2023/12/12 11:20:24;;;;;;;51.47;28.52;;;;;;;;;;6079622;29;20100;-78
2023/12/12 11:23:53;;;;;;;156.48;74.97;;;;;;;;;;6079551;29;20084;-78
2023/12/12 11:26:55;;;;;;;146.18;70.60;;;;;;;;;;6079062;29;20072;-83
2023/12/12 11:29:58;;;;;;;72.93;39.22;;;;;;;;;;6083903;29;20049;-83
2023/12/12 11:33:00;;;;;;;129.40;60.17;;;;;;;;;;6084113;29;20076;-85
2023/12/12 11:36:02;;;;;;;55.97;31.88;;;;;;;;;;6083755;29;20357;-84
2023/12/12 11:39:08;;;;;;;79.13;43.83;;;;;;;;;;6088920;29;20052;-84
2023/12/12 11:42:17;;;;;;;52.28;30.95;;;;;;;;;;6086201;29;20090;-84
2023/12/12 11:45:31;;;;;;;48.70;25.88;;;;;;;;;;6085236;29;20048;-84
2023/12/12 11:48:33;;;;;;;48.28;26.83;;;;;;;;;;6085666;29;20052;-85
2023/12/12 11:51:46;;;;;;;47.90;25.13;;;;;;;;;;6084908;29;20060;-84
2023/12/12 11:54:53;;;;;;;44.03;26.58;;;;;;;;;;6080139;29;20067;-86
2023/12/12 11:58:00;;;;;;;49.08;26.42;;;;;;;;;;6085309;29;20060;-86
2023/12/12 12:01:03;;;;;;;44.97;26.38;;;;;;;;;;6089395;29;20056;-85
2023/12/12 12:04:05;;;;;;;46.40;26.00;;;;;;;;;;6087220;29;20343;-84
2023/12/12 12:07:07;;;;;;;44.58;26.38;;;;;;;;;;6083329;29;20071;-83
2023/12/12 12:10:09;;;;;;;44.28;26.85;;;;;;;;;;6084949;29;20328;-84
2023/12/12 12:13:12;;;;;;;44.40;26.70;;;;;;;;;;6086741;29;20336;-82
2023/12/12 12:16:15;;;;;;;45.25;27.00;;;;;;;;;;6083708;29;20103;-83
2023/12/12 12:19:32;;;;;;;47.92;27.38;;;;;;;;;;6083461;29;20055;-84
2023/12/12 12:22:38;;;;;;;43.67;27.65;;;;;;;;;;6083259;29;20060;-83
2023/12/12 12:25:40;;;;;;;48.75;27.90;;;;;;;;;;6084028;29;20429;-83
2023/12/12 12:28:42;;;;;;;42.90;26.45;;;;;;;;;;6078909;29;20066;-82
2023/12/12 12:31:45;;;;;;;44.00;26.25;;;;;;;;;;6081539;29;20244;-84
2023/12/12 12:34:47;;;;;;;40.60;24.57;;;;;;;;;;6079328;29;20072;-84
2023/12/12 12:37:49;;;;;;;45.67;26.13;;;;;;;;;;6083713;29;20063;-83
2023/12/12 12:40:51;;;;;;;47.28;26.13;;;;;;;;;;6081124;29;20061;-85
2023/12/12 12:43:54;;;;;;;40.78;24.83;;;;;;;;;;6080551;29;20064;-84
2023/12/12 12:46:58;;;;;;;43.60;24.48;;;;;;;;;;6081002;29;20108;-82
2023/12/12 12:50:00;;;;;;;42.67;25.93;;;;;;;;;;6085292;29;20056;-84
2023/12/12 12:53:03;;;;;;;41.03;25.20;;;;;;;;;;6086311;29;20060;-86
2023/12/12 12:56:06;;;;;;;44.53;26.02;;;;;;;;;;6080034;29;20053;-84
2023/12/12 12:59:08;;;;;;;38.90;23.95;;;;;;;;;;6083971;29;20385;-85
2023/12/12 13:02:12;;;;;;;42.60;24.75;;;;;;;;;;6085790;29;20052;-85
2023/12/12 13:05:15;;;;;;;43.50;26.07;;;;;;;;;;6085146;29;20260;-83
2023/12/12 13:08:18;;;;;;;49.63;29.65;;;;;;;;;;6087515;29;20240;-85
2023/12/12 13:11:20;;;;;;;54.28;31.13;;;;;;;;;;6084010;29;20119;-85
2023/12/12 13:14:22;;;;;;;52.20;30.42;;;;;;;;;;6085062;29;20057;-86
2023/12/12 13:17:26;;;;;;;55.40;32.42;;;;;;;;;;6083158;29;20063;-86
2023/12/12 13:20:27;;;;;;;51.60;31.15;;;;;;;;;;6084313;29;20324;-84
2023/12/12 13:23:29;;;;;;;54.63;31.25;;;;;;;;;;6083345;29;20379;-85
2023/12/12 13:26:31;;;;;;;59.05;32.05;;;;;;;;;;6080314;29;20056;-83
2023/12/12 13:29:33;;;;;;;51.20;31.05;;;;;;;;;;6082526;29;20064;-84
2023/12/12 13:32:39;;;;;;;54.70;29.85;;;;;;;;;;6079833;29;20058;-84
2023/12/12 13:35:41;;;;;;;57.25;30.33;;;;;;;;;;6080419;29;20041;-84
2023/12/12 13:38:43;;;;;;;49.58;30.00;;;;;;;;;;6086405;29;20345;-84
2023/12/12 13:41:45;;;;;;;53.35;30.63;;;;;;;;;;6082933;29;20363;-86
2023/12/12 13:44:47;;;;;;;48.13;29.15;;;;;;;;;;6081751;29;20059;-84
2023/12/12 13:47:53;;;;;;;52.95;29.95;;;;;;;;;;6082853;29;20056;-84
2023/12/12 13:50:55;;;;;;;47.22;28.10;;;;;;;;;;6086010;29;20336;-85
2023/12/12 13:53:57;;;;;;;48.40;28.40;;;;;;;;;;6079533;29;20056;-85
2023/12/12 13:56:58;;;;;;;53.65;29.08;;;;;;;;;;6081875;29;20301;-86
2023/12/12 14:00:00;;;;;;;49.55;29.27;;;;;;;;;;6083776;29;20275;-86
2023/12/12 14:03:05;;;;;;;51.78;29.77;;;;;;;;;;6082262;29;20055;-85
2023/12/12 14:06:07;;;;;;;55.63;29.42;;;;;;;;;;6079195;29;20248;-85
2023/12/12 14:09:11;;;;;;;51.42;29.33;;;;;;;;;;6083533;29;20072;-84
2023/12/12 14:12:13;;;;;;;54.58;29.50;;;;;;;;;;6085970;29;20059;-85
2023/12/12 14:15:15;;;;;;;57.42;29.58;;;;;;;;;;6081221;29;20352;-86
2023/12/12 14:18:19;;;;;;;53.28;29.35;;;;;;;;;;6082968;29;20062;-85
2023/12/12 14:21:21;;;;;;;51.63;28.40;;;;;;;;;;6084177;29;20072;-83
2023/12/12 14:24:22;;;;;;;52.45;30.15;;;;;;;;;;6080115;29;20080;-84
2023/12/12 14:27:24;;;;;;;55.50;28.65;;;;;;;;;;6079500;29;20056;-85
2023/12/12 14:30:26;;;;;;;59.60;31.65;;;;;;;;;;6078496;29;20076;-83
2023/12/12 14:33:29;;;;;;;55.25;28.92;;;;;;;;;;6077310;29;20064;-86
2023/12/12 14:36:31;;;;;;;57.15;28.27;;;;;;;;;;6080013;29;20335;-85
2023/12/12 14:39:33;;;;;;;54.08;28.85;;;;;;;;;;6079198;29;20056;-84
2023/12/12 14:42:36;;;;;;;61.08;30.77;;;;;;;;;;6082789;29;20063;-84
2023/12/12 14:45:38;;;;;;;58.45;30.08;;;;;;;;;;6077257;29;20062;-84
2023/12/12 14:48:42;;;;;;;58.97;28.25;;;;;;;;;;6080585;29;20060;-83
2023/12/12 14:51:44;;;;;;;59.25;29.05;;;;;;;;;;6083637;29;20060;-84
2023/12/12 14:54:46;;;;;;;58.92;29.85;;;;;;;;;;6079165;29;20660;-85
2023/12/12 14:57:48;;;;;;;58.30;29.38;;;;;;;;;;6078487;29;20368;-85
2023/12/12 15:00:50;;;;;;;62.22;29.98;;;;;;;;;;6081465;29;20056;-86
2023/12/12 15:03:53;;;;;;;56.40;28.17;;;;;;;;;;6084592;29;20134;-83
2023/12/12 15:06:55;;;;;;;60.13;28.25;;;;;;;;;;6084095;29;20040;-83
2023/12/12 15:09:56;;;;;;;64.10;30.15;;;;;;;;;;6084287;29;20053;-83
2023/12/12 15:12:58;;;;;;;62.60;29.00;;;;;;;;;;6088804;29;20331;-85
2023/12/12 15:16:00;;;;;;;63.20;29.13;;;;;;;;;;6083140;29;20056;-85
2023/12/12 15:19:03;;;;;;;61.40;29.45;;;;;;;;;;6087646;29;20296;-83
2023/12/12 15:22:05;;;;;;;68.97;31.27;;;;;;;;;;6089939;29;20348;-83
2023/12/12 15:25:10;;;;;;;62.35;29.67;;;;;;;;;;6088704;29;20063;-83
2023/12/12 15:28:12;;;;;;;69.53;30.27;;;;;;;;;;6083952;29;20067;-86
2023/12/12 15:31:14;;;;;;;70.00;29.20;;;;;;;;;;6083297;29;20052;-84
2023/12/12 15:34:17;;;;;;;68.80;28.67;;;;;;;;;;6083888;29;20060;-83
2023/12/12 15:37:19;;;;;;;69.87;28.73;;;;;;;;;;6081295;29;20104;-83
2023/12/12 15:40:21;;;;;;;75.05;30.33;;;;;;;;;;6085879;29;20256;-85
2023/12/12 15:43:23;;;;;;;69.90;28.73;;;;;;;;;;6084202;29;20067;-84
2023/12/12 15:46:25;;;;;;;74.05;30.50;;;;;;;;;;6085338;29;20060;-85
2023/12/12 15:49:28;;;;;;;75.80;31.25;;;;;;;;;;6083588;29;20058;-85
2023/12/12 15:52:29;;;;;;;75.38;30.38;;;;;;;;;;6084341;29;20044;-83
2023/12/12 15:55:31;;;;;;;83.78;31.70;;;;;;;;;;6080099;29;20067;-83
2023/12/12 15:58:33;;;;;;;70.53;30.80;;;;;;;;;;6084879;29;20261;-83
2023/12/12 16:01:35;;;;;;;82.40;31.17;;;;;;;;;;6066605;29;20057;-85
2023/12/12 16:04:39;;;;;;;72.70;28.92;;;;;;;;;;6077155;29;20059;-84
2023/12/12 16:07:41;;;;;;;85.60;31.38;;;;;;;;;;6079243;29;20063;-83
2023/12/12 16:10:43;;;;;;;81.13;30.27;;;;;;;;;;6080774;29;20060;-83
2023/12/12 16:13:46;;;;;;;77.97;31.48;;;;;;;;;;6079990;29;20061;-82
2023/12/12 16:16:50;;;;;;;71.72;30.08;;;;;;;;;;6082418;29;20086;-84
2023/12/12 16:19:55;;;;;;;78.05;30.85;;;;;;;;;;6085096;29;20051;-82
2023/12/12 16:22:57;;;;;;;70.60;28.67;;;;;;;;;;6085286;29;20107;-82
2023/12/12 16:25:59;;;;;;;67.47;29.23;;;;;;;;;;6081121;29;20057;-82
2023/12/12 16:29:01;;;;;;;69.50;28.38;;;;;;;;;;6082683;29;20125;-81
2023/12/12 16:32:02;;;;;;;68.53;29.60;;;;;;;;;;6083130;29;20075;-83
2023/12/12 16:35:07;;;;;;;68.35;30.95;;;;;;;;;;6084511;29;20076;-82
2023/12/12 16:38:17;;;;;;;58.20;27.40;;;;;;;;;;6079364;29;20044;-82
2023/12/12 16:41:19;;;;;;;59.25;28.02;;;;;;;;;;6080117;29;20056;-83
2023/12/12 16:44:20;;;;;;;65.68;29.45;;;;;;;;;;6078547;29;20067;-83
2023/12/12 16:47:25;;;;;;;71.50;29.98;;;;;;;;;;6078683;29;20468;-83
2023/12/12 16:50:28;;;;;;;67.70;28.77;;;;;;;;;;6083244;29;20355;-84
2023/12/12 16:53:29;;;;;;;63.75;28.30;;;;;;;;;;6081036;29;20067;-82
2023/12/12 16:56:31;;;;;;;65.97;29.48;;;;;;;;;;6082754;29;20063;-83
2023/12/12 16:59:33;;;;;;;65.43;28.83;;;;;;;;;;6084686;29;20057;-82
2023/12/12 17:02:35;;;;;;;67.20;29.23;;;;;;;;;;6085173;29;20119;-84
2023/12/12 17:05:38;;;;;;;64.45;28.13;;;;;;;;;;6081851;29;20076;-84
2023/12/12 17:08:40;;;;;;;70.45;30.38;;;;;;;;;;6085885;29;20095;-82
2023/12/12 17:11:43;;;;;;;65.05;29.15;;;;;;;;;;6078640;29;20083;-83
2023/12/12 17:14:44;;;;;;;65.95;28.63;;;;;;;;;;6081259;29;20119;-84
2023/12/12 17:17:46;;;;;;;63.72;30.23;;;;;;;;;;6080499;29;20048;-80
2023/12/12 17:20:49;;;;;;;82.47;30.63;;;;;;;;;;6081715;29;20055;-77
2023/12/12 17:23:51;;;;;;;66.28;29.90;;;;;;;;;;6086303;29;20056;-79
2023/12/12 17:26:53;;;;;;;68.95;30.80;;;;;;;;;;6082728;29;20056;-78
2023/12/12 17:29:54;;;;;;;65.15;28.98;;;;;;;;;;6083276;29;20059;-81
2023/12/12 17:32:56;;;;;;;69.63;30.60;;;;;;;;;;6081164;29;20051;-78
2023/12/12 17:35:59;;;;;;;65.15;28.08;;;;;;;;;;6082656;29;20101;-79
2023/12/12 17:39:01;;;;;;;68.82;28.20;;;;;;;;;;6076574;29;20423;-78
2023/12/12 17:42:03;;;;;;;64.25;28.88;;;;;;;;;;6084247;29;20061;-77